Latest Weather Observations for Noonamah

IDD60801

Issued at 7:31 am CST Saturday 13 February 2016 (issued every 30 minutes, with the page automatically refreshed every 10 minutes)

About weather observations | Map of weather stations | Latest weather observations for NT | Other Formats
Station Details ID: 014314 Name: NOONAMAH AIRSTRIP Lat: -12.61 Lon: 131.05 Height: 17.5 m
Data from the previous 72 hours. | See also: Recent months at Noonamah
Date/Time
CST
Temp
°C
App
Temp
°C
Dew
Point
Rel
Hum
%
Delta-T
°C
Wind Press
QNH
hPa
Press
MSL
hPa
Rain
since 9 am
mm
Dir
 
Spd
km/h
Gust
km/h
Spd
kts
Gust
kts
13/07:30am 27.6 35.2 26.7 95 0.6 CALM 0 0 0 0 1009.2 1009.0 0.0
13/07:00am 27.4 34.8 26.5 95 0.6 CALM 0 0 0 0 1008.7 1008.5 0.0
13/06:30am 27.5 35.0 26.6 95 0.6 CALM 0 0 0 0 1007.9 1007.7 0.0
13/06:00am 27.6 34.6 26.5 94 0.8 ESE 2 4 1 2 1007.5 1007.3 0.0
13/05:30am 27.5 34.9 26.4 94 0.8 CALM 0 0 0 0 1007.3 1007.1 0.0
13/05:00am 27.5 34.8 26.3 93 0.9 CALM 0 4 0 2 1007.0 1006.8 0.0
13/04:30am 27.4 33.6 26.3 94 0.8 ENE 6 6 3 3 1007.1 1006.9 0.0
13/04:00am 27.6 34.2 26.4 93 0.9 ESE 4 4 2 2 1006.7 1006.5 0.0
13/03:30am 27.6 35.0 26.4 93 0.9 CALM 0 0 0 0 1006.6 1006.4 0.0
13/03:00am 27.4 33.9 26.2 93 0.9 WSW 4 6 2 3 1006.5 1006.3 0.0
13/02:30am 27.5 34.5 26.4 94 0.8 WSW 2 2 1 1 1006.8 1006.6 0.0
13/02:00am 27.7 34.7 26.5 93 0.9 WSW 2 4 1 2 1007.1 1006.9 0.0
13/01:30am 27.7 34.2 26.3 92 1.0 W 4 6 2 3 1007.4 1007.2 0.0
13/01:00am 27.7 34.6 26.3 92 1.0 W 2 6 1 3 1007.6 1007.4 0.0
13/12:30am 27.8 35.2 26.4 92 1.0 CALM 0 0 0 0 1008.1 1007.9 0.0
13/12:00am 27.8 34.3 26.2 91 1.1 W 4 6 2 3 1008.3 1008.1 0.0
 
Date/Time
CST
Temp
°C
App
Temp
°C
Dew
Point
Rel
Hum
%
Delta-T
°C
Wind Press
QNH
hPa
Press
MSL
hPa
Rain
since 9 am
mm
Dir
 
Spd
km/h
Gust
km/h
Spd
kts
Gust
kts
12/11:30pm 27.8 34.9 26.0 90 1.3 CALM 0 0 0 0 1008.4 1008.2 0.0
12/11:00pm 28.0 34.2 25.8 88 1.6 SW 4 6 2 3 1008.3 1008.1 0.0
12/10:30pm 28.2 34.8 26.4 90 1.3 WSW 4 6 2 3 1008.2 1008.0 0.0
12/10:00pm 28.3 35.1 26.7 91 1.1 WSW 4 6 2 3 1008.2 1008.0 0.0
12/09:30pm 28.4 35.1 26.6 90 1.3 W 4 6 2 3 1008.1 1007.9 0.0
12/09:00pm 28.4 35.0 26.4 89 1.4 WSW 4 4 2 2 1007.9 1007.7 0.0
12/08:30pm 28.4 34.7 26.0 87 1.7 W 4 6 2 3 1007.3 1007.1 0.0
12/08:00pm 28.6 35.4 25.6 84 2.1 CALM 0 0 0 0 1006.8 1006.6 0.0
12/07:30pm 28.7 34.7 25.5 83 2.3 NW 4 6 2 3 1006.5 1006.3 0.0
12/07:00pm 28.8 34.7 25.4 82 2.4 W 4 4 2 2 1006.1 1005.9 0.0
12/06:30pm 28.8 34.4 25.4 82 2.4 WNW 6 7 3 4 1006.0 1005.8 0.0
12/06:00pm 29.0 34.7 25.0 79 2.8 WNW 4 7 2 4 1005.5 1005.3 0.0
12/05:30pm 28.9 34.3 25.1 80 2.7 WSW 6 9 3 5 1005.5 1005.3 0.0
12/05:00pm 29.1 33.7 24.2 75 3.4 NW 7 13 4 7 1005.1 1004.9 0.0
12/04:30pm 28.9 32.6 24.5 77 3.1 WNW 13 20 7 11 1004.9 1004.7 0.0
12/04:00pm 31.1 35.8 26.1 75 3.6 NW 13 22 7 12 1005.0 1004.8 0.0
12/03:30pm 34.3 39.3 23.9 54 7.3 N 4 6 2 3 1005.0 1004.8 0.0
12/03:00pm 33.8 38.8 23.8 56 7.0 NE 4 6 2 3 1005.4 1005.2 0.0
12/02:30pm 34.1 38.5 23.5 54 7.4 ESE 6 7 3 4 1005.6 1005.4 0.0
12/02:00pm 33.7 38.2 23.7 56 7.0 WSW 6 9 3 5 1005.9 1005.7 0.0
12/01:30pm 34.1 38.9 24.1 56 7.0 S 6 9 3 5 1006.4 1006.2 0.0
12/01:00pm 33.2 37.7 22.9 54 7.1 SSW 4 7 2 4 1006.8 1006.6 0.0
12/12:30pm 33.3 38.0 23.3 55 6.9 S 4 7 2 4 1007.0 1006.8 0.0
12/12:00pm 33.0 37.3 23.3 56 6.7 SSW 6 9 3 5 1007.7 1007.5 0.0
12/11:30am 32.4 36.8 23.4 59 6.2 W 6 11 3 6 1008.0 1007.8 0.0
12/11:00am 32.1 37.1 23.9 62 5.7 SSE 4 11 2 6 1008.3 1008.1 0.0
12/10:30am 31.3 35.8 22.9 61 5.8 SW 4 7 2 4 1008.7 1008.5 0.0
12/10:00am 30.6 35.6 23.8 67 4.7 SE 4 6 2 3 1008.9 1008.7 0.0
12/09:30am 29.9 35.3 23.8 70 4.2 SE 2 6 1 3 1009.3 1009.1 0.0
12/09:00am 28.8 33.2 23.5 73 3.6 SE 6 9 3 5 1009.2 1009.0 11.4
12/08:30am 27.5 32.3 24.1 82 2.4 ESE 6 9 3 5 1009.0 1008.8 11.4
12/08:00am 26.4 31.3 24.6 90 1.2 ESE 7 9 4 5 1008.6 1008.4 11.4
12/07:30am 25.3 31.0 24.4 95 0.6 SE 2 4 1 2 1008.3 1008.1 11.4
12/07:00am 24.9 30.5 24.2 96 0.5 SSE 2 4 1 2 1008.0 1007.8 11.4
12/06:30am 24.9 29.7 24.2 96 0.5 ESE 6 7 3 4 1007.9 1007.7 11.4
12/06:00am 25.0 29.9 24.3 96 0.5 SE 6 7 3 4 1007.7 1007.5 11.4
12/05:30am 24.9 30.1 24.2 96 0.5 SE 4 7 2 4 1007.3 1007.1 11.4
12/05:00am 24.9 29.8 24.4 97 0.3 SE 6 11 3 6 1007.2 1007.0 11.4
12/04:30am 24.9 30.0 24.6 98 0.2 ESE 6 7 3 4 1007.0 1006.8 11.4
12/04:00am 24.8 30.8 24.3 97 0.3 CALM 0 0 0 0 1006.6 1006.4 11.4
12/03:30am 24.8 30.8 24.3 97 0.3 CALM 0 0 0 0 1006.4 1006.2 11.4
12/03:00am 24.6 30.1 24.1 97 0.3 SW 2 4 1 2 1006.5 1006.3 11.4
12/02:30am 24.4 29.8 23.9 97 0.3 WSW 2 4 1 2 1006.4 1006.2 11.4
12/02:00am 24.3 29.9 23.6 96 0.5 CALM 0 0 0 0 1006.8 1006.6 11.4
12/01:30am 24.3 29.2 23.6 96 0.5 NW 4 6 2 3 1007.0 1006.8 11.4
12/01:00am 24.4 29.7 23.7 96 0.5 NE 2 4 1 2 1007.3 1007.1 11.4
12/12:30am 24.3 29.4 23.4 95 0.6 N 2 4 1 2 1007.4 1007.2 11.4
12/12:00am 24.4 29.1 23.4 94 0.7 W 4 6 2 3 1007.5 1007.3 11.4
 
Date/Time
CST
Temp
°C
App
Temp
°C
Dew
Point
Rel
Hum
%
Delta-T
°C
Wind Press
QNH
hPa
Press
MSL
hPa
Rain
since 9 am
mm
Dir
 
Spd
km/h
Gust
km/h
Spd
kts
Gust
kts
11/11:30pm 24.5 29.6 23.3 93 0.8 SSW 2 4 1 2 1007.9 1007.7 11.4
11/11:00pm 24.6 29.1 23.6 94 0.7 SSW 6 9 3 5 1008.0 1007.8 11.4
11/10:30pm 24.6 30.2 23.6 94 0.7 CALM 0 0 0 0 1007.5 1007.3 11.4
11/10:00pm 24.3 29.0 23.3 94 0.7 SSW 4 7 2 4 1007.1 1006.9 11.2
11/09:30pm 24.1 28.9 22.9 93 0.8 ENE 2 6 1 3 1006.7 1006.5 11.2
11/09:00pm 23.7 27.6 22.5 93 0.8 ENE 6 13 3 7 1006.7 1006.5 11.2
11/08:30pm 23.9 26.0 22.5 92 0.9 W 15 20 8 11 1006.5 1006.3 10.4
11/08:00pm 25.0 27.5 22.5 86 1.7 WSW 13 26 7 14 1006.6 1006.4 8.4
11/07:30pm 25.5 27.9 22.2 82 2.2 W 13 20 7 11 1004.7 1004.5 7.8
11/07:00pm 26.3 29.2 21.1 73 3.4 WNW 7 19 4 10 1004.7 1004.5 4.6
11/06:30pm 30.1 36.0 26.7 82 2.4 NW 9 19 5 10 1004.3 1004.1 0.2
11/06:00pm 31.3 36.6 25.9 73 3.9 NNW 9 13 5 7 1003.6 1003.4 0.0
11/05:30pm 32.3 36.6 24.9 65 5.2 NNW 11 17 6 9 1003.0 1002.8 0.0
11/05:00pm 33.5 38.5 26.5 67 5.0 NNW 13 20 7 11 1003.0 1002.8 0.0
11/04:30pm 35.5 39.7 23.5 50 8.4 WSW 7 15 4 8 1003.1 1002.9 0.0
11/04:00pm 34.8 40.5 25.6 59 6.6 WSW 6 9 3 5 1003.2 1003.0 0.0
11/03:30pm 34.9 39.7 25.1 56 7.0 WSW 9 15 5 8 1003.4 1003.2 0.0
11/03:00pm 35.0 39.7 24.9 55 7.2 SW 9 17 5 9 1003.8 1003.6 0.0
11/02:30pm 34.6 38.9 23.6 52 7.7 SSW 7 15 4 8 1004.1 1003.9 0.0
11/02:00pm 34.5 39.4 24.7 56 6.9 SSW 7 13 4 7 1004.4 1004.2 0.0
11/01:30pm 33.8 38.3 25.2 60 6.1 WSW 11 17 6 9 1004.8 1004.6 0.0
11/01:00pm 33.1 37.9 25.1 63 5.7 WNW 9 17 5 9 1005.3 1005.1 0.0
11/12:30pm 32.7 35.6 23.9 60 6.1 W 15 22 8 12 1005.9 1005.7 0.0
11/12:00pm 32.2 37.1 25.3 67 4.9 W 9 15 5 8 1006.2 1006.0 0.0
11/11:30am 31.9 36.4 25.2 67 4.7 W 11 19 6 10 1006.5 1006.3 0.0
11/11:00am 30.8 35.4 24.7 70 4.3 W 9 13 5 7 1006.9 1006.7 0.0
11/10:30am 30.6 35.3 24.0 68 4.6 SW 6 9 3 5 1007.3 1007.1 0.0
11/10:00am 30.2 35.7 24.1 70 4.2 SW 2 6 1 3 1007.7 1007.5 0.0
11/09:30am 29.4 34.7 24.3 74 3.6 ESE 4 6 2 3 1007.8 1007.6 0.0
11/09:00am 28.5 33.9 24.5 79 2.8 SSW 4 6 2 3 1007.7 1007.5 22.2
11/08:30am 26.6 31.7 24.6 89 1.4 SSW 6 7 3 4 1007.8 1007.6 22.2
11/08:00am 25.8 30.5 24.0 90 1.2 WSW 6 7 3 4 1007.6 1007.4 22.2
11/07:30am 25.4 31.2 24.0 92 1.0 CALM 0 0 0 0 1007.1 1006.9 22.2
11/07:00am 25.4 30.3 23.6 90 1.2 E 4 6 2 3 1006.7 1006.5 22.2
11/06:30am 25.6 30.7 24.6 94 0.7 ENE 6 15 3 8 1006.1 1005.9 22.2
11/06:00am 25.6 30.9 24.4 93 0.8 NNW 4 7 2 4 1005.9 1005.7 22.2
11/05:30am 25.8 30.6 24.4 92 1.0 SSE 7 11 4 6 1006.4 1006.2 22.2
11/05:00am 25.9 30.6 24.3 91 1.1 SSE 7 13 4 7 1006.9 1006.7 22.2
11/04:30am 26.1 30.6 24.0 88 1.4 S 7 13 4 7 1007.3 1007.1 22.2
11/04:00am 26.3 31.2 24.7 91 1.1 S 7 13 4 7 1007.1 1006.9 22.2
11/03:30am 26.4 32.5 25.7 96 0.5 SSE 4 7 2 4 1006.3 1006.1 22.2
11/03:00am 26.5 32.7 25.8 96 0.5 SSE 4 6 2 3 1005.7 1005.5 22.2
11/02:30am 26.6 32.7 25.7 95 0.6 S 4 7 2 4 1005.9 1005.7 22.2
11/02:00am 26.8 32.7 25.9 95 0.6 NNW 6 7 3 4 1006.0 1005.8 22.2
11/01:30am 27.0 33.0 26.0 94 0.7 NE 6 9 3 5 1006.7 1006.5 22.2
11/01:00am 27.3 33.7 26.1 93 0.9 SSE 4 6 2 3 1007.3 1007.1 22.2
11/12:30am 27.7 33.9 26.3 92 1.0 SE 6 9 3 5 1007.5 1007.3 22.2
11/12:00am 27.6 33.6 26.0 91 1.1 SW 6 9 3 5 1007.4 1007.2 22.2
 
Date/Time
CST
Temp
°C
App
Temp
°C
Dew
Point
Rel
Hum
%
Delta-T
°C
Wind Press
QNH
hPa
Press
MSL
hPa
Rain
since 9 am
mm
Dir
 
Spd
km/h
Gust
km/h
Spd
kts
Gust
kts
10/11:30pm 26.7 32.5 25.8 95 0.6 W 6 7 3 4 1007.0 1006.8 22.2
10/11:00pm 25.9 31.7 25.2 96 0.5 WNW 4 6 2 3 1007.1 1006.9 22.2
10/10:30pm 26.2 32.6 25.5 96 0.5 SW 2 4 1 2 1007.0 1006.8 22.2
10/10:00pm 25.9 32.0 25.0 95 0.6 WSW 2 4 1 2 1006.9 1006.7 22.2
10/09:30pm 26.0 32.5 25.0 94 0.7 CALM 0 0 0 0 1006.7 1006.5 22.2
10/09:00pm 26.1 32.5 24.9 93 0.8 CALM 0 0 0 0 1006.8 1006.6 22.2
10/08:30pm 26.5 32.9 24.9 91 1.1 CALM 0 2 0 1 1006.9 1006.7 22.2
10/08:00pm 26.6 31.9 24.4 88 1.5 NNW 4 4 2 2 1006.3 1006.1 22.2
10/07:30pm 27.1 32.6 24.0 83 2.1 WNW 2 4 1 2 1005.9 1005.7 22.2
10/07:00pm 27.7 32.1 23.5 78 2.9 NW 6 7 3 4 1005.2 1005.0 22.2
10/06:30pm 27.1 31.7 23.8 82 2.3 NNW 6 9 3 5 1005.0 1004.8 22.2
10/06:00pm 26.3 30.9 24.2 88 1.5 N 7 9 4 5 1004.9 1004.7 22.2
10/05:30pm 25.8 30.1 24.2 91 1.1 N 9 13 5 7 1004.8 1004.6 22.2
10/05:00pm 25.4 29.7 23.6 90 1.2 NNE 7 11 4 6 1005.0 1004.8 22.2
10/04:30pm 24.7 27.6 23.8 95 0.6 NE 15 24 8 13 1005.1 1004.9 22.2
10/04:00pm 24.3 26.2 23.4 95 0.6 ESE 19 32 10 17 1004.7 1004.5 22.0
10/03:30pm 24.6 24.3 22.5 88 1.4 SSW 28 61 15 33 1004.6 1004.4 13.4
10/03:20pm 28.5 30.3 22.5 70 4.1 WSW 17 32 9 17 1003.8 1003.6 0.0
10/03:00pm 33.9 38.6 25.6 62 5.9 W 11 19 6 10 1003.7 1003.5 0.0
10/02:30pm 34.4 38.3 24.9 57 6.7 WSW 13 24 7 13 1003.9 1003.7 0.0
10/02:00pm 34.1 38.9 26.3 64 5.6 WSW 13 19 7 10 1004.7 1004.5 0.0
10/01:30pm 33.2 38.2 26.0 66 5.2 WNW 11 19 6 10 1005.5 1005.3 0.0
10/01:00pm 32.3 37.0 25.6 67 4.8 WNW 11 22 6 12 1006.0 1005.8 0.0
10/12:30pm 32.4 37.2 25.7 68 4.8 WNW 11 15 6 8 1006.4 1006.2 0.0
10/12:00pm 32.6 37.8 25.7 67 4.9 W 9 17 5 9 1006.8 1006.6 0.0
10/11:30am 32.2 36.8 26.0 70 4.4 WNW 13 19 7 10 1007.0 1006.8 0.0
10/11:00am 31.7 37.8 26.5 74 3.7 W 7 15 4 8 1007.2 1007.0 0.0
10/10:30am 31.6 37.0 26.6 75 3.6 W 11 17 6 9 1007.4 1007.2 0.0
10/10:00am 30.6 35.3 26.1 77 3.2 WNW 13 20 7 11 1007.7 1007.5 0.0
10/09:30am 30.5 36.7 26.7 80 2.7 W 7 17 4 9 1007.9 1007.7 0.0
10/09:00am 29.4 36.3 26.8 86 1.9 W 4 7 2 4 1007.9 1007.7 19.2
10/08:30am 28.1 34.6 25.7 87 1.7 NW 2 4 1 2 1007.8 1007.6 19.2
10/08:00am 27.3 34.2 25.7 91 1.1 CALM 0 0 0 0 1007.5 1007.3 19.2

Other Formats:

Comma delimited format used in spreadsheet applications
http://www.bom.gov.au/fwo/IDD60801/IDD60801.94105.axf

JavaScript Object Notation format (JSON) in row-major order
http://www.bom.gov.au/fwo/IDD60801/IDD60801.94105.json